Time;durP1;ratioP1;P1;durP2;ratioP2;P2;SDS_P1;SDS_P2;PMS_P1;PMS_P2;Temp;Humidity;BMP_temperature;BMP_pressure;BME280_temperature;BME280_humidity;BME280_pressure;Samples;Min_cycle;Max_cycle;Signal;HPM_P1;HPM_P2
2021/03/06 00:00:10;;;;;;;20.98;9.85;;;3.30;97.90;;;;;;4870179;29;20033;-93
2021/03/06 00:02:37;;;;;;;18.83;7.03;;;3.30;98.00;;;;;;4866235;29;20037;-92
2021/03/06 00:05:04;;;;;;;11.40;5.50;;;3.30;98.10;;;;;;4881362;29;20455;-93
2021/03/06 00:07:30;;;;;;;14.20;6.90;;;3.20;98.00;;;;;;4866461;29;20058;-92
2021/03/06 00:09:55;;;;;;;15.80;6.93;;;3.20;98.10;;;;;;4885257;29;20025;-92
2021/03/06 00:12:21;;;;;;;12.52;6.43;;;3.20;98.40;;;;;;4883541;29;20510;-91
2021/03/06 00:14:47;;;;;;;7.35;4.13;;;3.20;98.70;;;;;;4865155;29;20025;-92
2021/03/06 00:17:13;;;;;;;9.02;4.90;;;3.20;98.80;;;;;;4865354;29;20071;-91
2021/03/06 00:19:38;;;;;;;11.82;5.22;;;3.20;98.80;;;;;;4865224;29;20072;-91
2021/03/06 00:22:04;;;;;;;10.07;4.35;;;3.20;98.90;;;;;;4864914;29;20397;-91
2021/03/06 00:24:30;;;;;;;12.27;4.93;;;3.20;98.90;;;;;;4865257;29;20033;-93
2021/03/06 00:26:56;;;;;;;8.82;4.25;;;3.20;98.80;;;;;;4882101;29;20515;-92
2021/03/06 00:29:22;;;;;;;10.85;5.05;;;3.10;98.80;;;;;;4881201;29;20036;-92
2021/03/06 00:31:48;;;;;;;11.65;5.63;;;3.10;98.90;;;;;;4880399;29;20120;-92
2021/03/06 00:34:14;;;;;;;9.73;5.13;;;3.10;99.10;;;;;;4864406;29;20040;-93
2021/03/06 00:36:39;;;;;;;10.20;4.22;;;3.10;99.30;;;;;;4865228;29;20112;-93
2021/03/06 00:39:06;;;;;;;9.32;4.63;;;3.10;99.50;;;;;;4865055;29;20501;-92
2021/03/06 00:41:32;;;;;;;8.15;4.22;;;3.10;99.40;;;;;;4864515;29;20540;-94
2021/03/06 00:43:59;;;;;;;10.43;4.00;;;3.10;99.10;;;;;;4864762;29;20034;-93
2021/03/06 00:46:25;;;;;;;9.98;4.28;;;3.00;98.80;;;;;;4880999;29;20033;-91
2021/03/06 00:48:50;;;;;;;10.57;5.35;;;2.90;98.80;;;;;;4865205;29;20056;-90
2021/03/06 00:51:17;;;;;;;8.75;4.43;;;2.90;99.20;;;;;;4864392;29;20056;-92
2021/03/06 00:53:42;;;;;;;10.35;4.10;;;2.80;99.40;;;;;;4864001;29;20033;-93
2021/03/06 00:56:08;;;;;;;9.27;4.72;;;2.80;99.30;;;;;;4864456;29;20604;-93
2021/03/06 00:58:34;;;;;;;8.98;4.55;;;2.80;99.60;;;;;;4863870;29;20040;-93
2021/03/06 01:01:00;;;;;;;8.18;4.50;;;2.70;99.70;;;;;;4864937;29;20029;-94
2021/03/06 01:03:26;;;;;;;7.95;3.85;;;2.70;99.90;;;;;;4882152;29;20036;-94
2021/03/06 01:05:52;;;;;;;8.98;4.13;;;2.70;99.90;;;;;;4867138;29;20131;-93
2021/03/06 01:08:18;;;;;;;7.35;3.55;;;2.70;99.90;;;;;;4866357;29;20061;-94
2021/03/06 01:10:45;;;;;;;6.00;3.70;;;2.70;99.90;;;;;;4866112;29;20116;-94
2021/03/06 01:13:11;;;;;;;12.95;5.35;;;2.60;99.90;;;;;;4864667;29;20068;-93
2021/03/06 01:15:39;;;;;;;13.75;5.30;;;2.60;99.90;;;;;;4864004;29;20119;-93
2021/03/06 01:18:06;;;;;;;7.07;4.07;;;2.50;99.90;;;;;;4864765;29;20037;-93
2021/03/06 01:20:32;;;;;;;8.85;4.65;;;2.50;99.90;;;;;;4880255;29;20101;-92
2021/03/06 01:22:58;;;;;;;10.35;4.95;;;2.50;99.90;;;;;;4862833;29;20036;-93
2021/03/06 01:25:24;;;;;;;12.45;5.55;;;2.50;99.90;;;;;;4864833;29;20033;-93
2021/03/06 01:27:49;;;;;;;13.00;5.60;;;2.50;99.90;;;;;;4880706;29;20033;-93
2021/03/06 01:30:17;;;;;;;11.10;4.85;;;2.50;99.90;;;;;;4863157;29;20164;-93
2021/03/06 01:32:43;;;;;;;8.05;4.55;;;2.40;99.90;;;;;;4862503;29;20033;-94
2021/03/06 01:35:10;;;;;;;7.72;4.22;;;2.40;99.90;;;;;;4862689;29;20032;-93
2021/03/06 01:37:41;;;;;;;10.75;5.20;;;2.40;99.90;;;;;;4863562;29;20116;-93
2021/03/06 01:40:08;;;;;;;13.80;4.90;;;2.40;99.90;;;;;;4870384;29;20109;-92
2021/03/06 01:42:34;;;;;;;7.22;4.45;;;2.40;99.90;;;;;;4865183;29;20084;-93
2021/03/06 01:44:59;;;;;;;16.10;4.80;;;2.30;99.90;;;;;;4864825;29;20029;-93
2021/03/06 01:47:25;;;;;;;11.48;5.22;;;2.30;99.90;;;;;;4883579;29;20033;-93
2021/03/06 01:49:50;;;;;;;10.65;5.97;;;2.20;99.90;;;;;;4866397;29;20123;-94
2021/03/06 01:52:16;;;;;;;16.15;5.95;;;2.20;99.90;;;;;;4867887;29;20045;-92
2021/03/06 01:54:43;;;;;;;15.00;5.95;;;2.10;99.90;;;;;;4867672;29;20033;-94
2021/03/06 01:57:09;;;;;;;11.45;6.40;;;2.10;99.90;;;;;;4866727;29;20036;-92
2021/03/06 01:59:35;;;;;;;7.43;4.35;;;2.00;99.90;;;;;;4866259;29;20056;-93
2021/03/06 02:02:03;;;;;;;14.85;6.72;;;2.00;99.90;;;;;;4882700;29;20439;-91
2021/03/06 02:04:29;;;;;;;18.77;7.25;;;2.00;99.90;;;;;;4867090;29;20050;-90
2021/03/06 02:06:55;;;;;;;18.58;7.57;;;2.00;99.90;;;;;;4865267;29;20084;-92
2021/03/06 02:09:22;;;;;;;15.40;6.85;;;2.00;99.90;;;;;;4864457;29;20088;-90
2021/03/06 02:11:54;;;;;;;13.30;6.47;;;2.00;99.90;;;;;;4880762;29;20036;-92
2021/03/06 02:14:33;;;;;;;13.75;6.55;;;2.00;99.90;;;;;;4859469;29;20115;-91
2021/03/06 02:17:11;;;;;;;16.30;7.22;;;1.90;99.90;;;;;;4861231;29;20171;-91
2021/03/06 02:20:10;;;;;;;14.27;7.18;;;1.90;99.90;;;;;;4862546;29;20054;-91
2021/03/06 02:23:03;;;;;;;18.92;7.72;;;1.90;99.90;;;;;;4860604;29;20060;-92
2021/03/06 02:25:54;;;;;;;15.90;7.47;;;1.90;99.90;;;;;;4864249;29;20037;-91
2021/03/06 02:28:41;;;;;;;13.00;6.88;;;1.90;99.90;;;;;;4865125;29;20037;-92
2021/03/06 02:31:10;;;;;;;17.55;7.32;;;1.90;99.90;;;;;;4881496;29;20037;-95
2021/03/06 02:33:39;;;;;;;16.70;7.55;;;1.80;99.90;;;;;;4863659;29;20037;-93
2021/03/06 02:36:18;;;;;;;17.75;7.78;;;1.80;99.90;;;;;;4863990;29;20460;-93
2021/03/06 02:38:47;;;;;;;15.07;7.25;;;1.80;99.90;;;;;;4863868;29;20033;-90
2021/03/06 02:41:13;;;;;;;15.48;7.82;;;1.80;99.90;;;;;;4863577;29;20148;-91
2021/03/06 02:43:41;;;;;;;15.00;7.47;;;1.80;99.90;;;;;;4864198;29;20088;-91
2021/03/06 02:46:08;;;;;;;15.25;7.10;;;1.80;99.90;;;;;;4864268;29;20033;-94
2021/03/06 02:48:35;;;;;;;14.77;7.60;;;1.70;99.90;;;;;;4864075;29;20071;-93
2021/03/06 02:51:02;;;;;;;15.27;7.43;;;1.80;99.90;;;;;;4864315;29;20081;-93
2021/03/06 02:53:28;;;;;;;15.13;8.30;;;1.80;99.90;;;;;;4864454;29;20101;-92
2021/03/06 02:55:54;;;;;;;15.90;7.57;;;1.80;99.90;;;;;;4864099;29;20025;-92
2021/03/06 02:59:13;;;;;;;14.45;7.45;;;1.80;99.90;;;;;;4864645;29;20054;-92
2021/03/06 03:01:45;;;;;;;12.63;7.03;;;1.80;99.90;;;;;;4816213;29;20063;-90
2021/03/06 03:04:32;;;;;;;17.73;7.63;;;1.80;99.90;;;;;;4829528;29;20076;-90
2021/03/06 03:07:07;;;;;;;14.25;6.90;;;1.80;99.90;;;;;;4828062;29;20153;-91
2021/03/06 03:09:34;;;;;;;15.63;6.72;;;1.80;99.90;;;;;;4824253;29;20026;-90
2021/03/06 03:12:06;;;;;;;12.80;7.18;;;1.80;99.90;;;;;;4823997;29;20556;-92
2021/03/06 03:14:51;;;;;;;14.40;6.85;;;1.80;99.90;;;;;;4823804;29;20030;-92
2021/03/06 03:17:24;;;;;;;15.52;6.72;;;1.80;99.90;;;;;;4823380;29;20105;-93
2021/03/06 03:19:59;;;;;;;12.88;7.50;;;1.80;99.90;;;;;;4810184;29;20030;-90
2021/03/06 03:22:27;;;;;;;14.02;6.15;;;1.80;99.90;;;;;;4828929;29;20046;-88
2021/03/06 03:24:56;;;;;;;15.27;7.75;;;1.70;99.90;;;;;;4826888;29;20137;-91
2021/03/06 03:27:23;;;;;;;13.82;6.45;;;1.70;99.90;;;;;;4823525;29;20027;-91
2021/03/06 03:29:50;;;;;;;15.30;7.75;;;1.70;99.90;;;;;;4807854;29;20030;-92
2021/03/06 03:32:17;;;;;;;14.05;7.35;;;1.70;99.90;;;;;;4822761;29;20027;-93
2021/03/06 03:34:43;;;;;;;20.20;7.38;;;1.70;99.90;;;;;;4823113;29;20125;-93
2021/03/06 03:37:11;;;;;;;15.43;8.10;;;1.60;99.90;;;;;;4849507;29;20037;-92
2021/03/06 03:39:38;;;;;;;14.27;7.63;;;1.60;99.90;;;;;;4863126;29;20068;-89
2021/03/06 03:42:06;;;;;;;14.15;7.03;;;1.60;99.90;;;;;;4863825;29;20496;-93
2021/03/06 03:44:33;;;;;;;15.07;7.05;;;1.60;99.90;;;;;;4863811;29;20033;-92
2021/03/06 03:46:59;;;;;;;13.02;7.30;;;1.60;99.90;;;;;;4863269;29;20033;-92
2021/03/06 03:49:25;;;;;;;17.27;7.75;;;1.60;99.90;;;;;;4863347;29;20035;-93
2021/03/06 03:51:53;;;;;;;16.15;7.38;;;1.60;99.90;;;;;;4863488;29;20064;-95
2021/03/06 03:54:19;;;;;;;17.52;8.02;;;1.60;99.90;;;;;;4880816;29;20033;-93
2021/03/06 03:56:45;;;;;;;16.00;7.47;;;1.50;99.90;;;;;;4864668;29;20044;-92
2021/03/06 03:59:11;;;;;;;15.07;7.85;;;1.50;99.90;;;;;;4863868;29;20039;-90
2021/03/06 04:01:43;;;;;;;13.85;6.90;;;1.40;99.90;;;;;;4863606;29;20554;-91
2021/03/06 04:04:26;;;;;;;18.83;7.53;;;1.40;99.90;;;;;;4863854;29;20029;-91
2021/03/06 04:06:59;;;;;;;15.32;7.03;;;1.40;99.90;;;;;;4863790;29;20029;-91
2021/03/06 04:09:25;;;;;;;13.95;7.22;;;1.40;99.90;;;;;;4862881;29;20032;-93
2021/03/06 04:11:51;;;;;;;12.45;6.82;;;1.40;99.90;;;;;;4863150;29;20037;-92
2021/03/06 04:14:17;;;;;;;13.57;7.68;;;1.40;99.90;;;;;;4861161;29;20494;-91
2021/03/06 04:16:43;;;;;;;14.25;7.60;;;1.40;99.90;;;;;;4862269;29;20037;-91
2021/03/06 04:19:09;;;;;;;15.73;7.22;;;1.50;99.90;;;;;;4862623;29;20088;-91
2021/03/06 04:21:34;;;;;;;15.75;7.40;;;1.50;99.90;;;;;;4862555;29;20517;-92
2021/03/06 04:24:00;;;;;;;18.52;8.55;;;1.50;99.90;;;;;;4862897;29;20037;-90
2021/03/06 04:26:26;;;;;;;12.60;7.13;;;1.40;99.90;;;;;;4863205;29;20506;-91
2021/03/06 04:28:52;;;;;;;14.27;6.28;;;1.40;99.90;;;;;;4862412;29;20069;-91
2021/03/06 04:31:18;;;;;;;14.73;7.35;;;1.40;99.90;;;;;;4862528;29;20088;-91
2021/03/06 04:33:44;;;;;;;16.02;7.30;;;1.30;99.90;;;;;;4862315;29;20041;-90
2021/03/06 04:36:11;;;;;;;15.43;6.93;;;1.30;99.90;;;;;;4862880;29;20476;-92
2021/03/06 04:38:36;;;;;;;11.32;5.55;;;1.30;99.90;;;;;;4862115;29;20043;-91
2021/03/06 04:41:02;;;;;;;17.30;7.38;;;1.30;99.90;;;;;;4878497;29;20053;-91
2021/03/06 04:43:28;;;;;;;9.88;5.80;;;1.30;99.90;;;;;;4861901;29;20041;-91
2021/03/06 04:45:54;;;;;;;16.58;6.68;;;1.20;99.90;;;;;;4862401;29;20474;-93
2021/03/06 04:48:19;;;;;;;12.88;6.28;;;1.20;99.90;;;;;;4862199;29;20037;-90
2021/03/06 04:50:46;;;;;;;12.55;7.07;;;1.10;99.90;;;;;;4878457;29;20391;-90
2021/03/06 04:53:11;;;;;;;15.88;7.43;;;1.10;99.90;;;;;;4861731;29;20037;-90
2021/03/06 04:55:37;;;;;;;12.25;6.57;;;1.10;99.90;;;;;;4862132;29;20029;-91
2021/03/06 04:58:03;;;;;;;14.40;6.90;;;1.20;99.90;;;;;;4878431;29;20395;-90
2021/03/06 05:00:29;;;;;;;11.95;6.50;;;1.10;99.90;;;;;;4861329;29;20033;-91
2021/03/06 05:02:55;;;;;;;11.10;5.75;;;1.20;99.90;;;;;;4861577;29;20040;-90
2021/03/06 05:05:20;;;;;;;14.43;6.32;;;1.20;99.90;;;;;;4862361;29;20044;-90
2021/03/06 05:07:46;;;;;;;14.13;5.97;;;1.20;99.90;;;;;;4861906;29;20033;-91
2021/03/06 05:10:12;;;;;;;10.48;5.95;;;1.20;99.90;;;;;;4861426;29;20083;-92
2021/03/06 05:12:38;;;;;;;13.02;6.22;;;1.20;99.90;;;;;;4861043;29;20041;-91
2021/03/06 05:15:05;;;;;;;13.00;5.93;;;1.10;99.90;;;;;;4877981;29;20036;-91
2021/03/06 05:17:31;;;;;;;13.68;6.65;;;1.10;99.90;;;;;;4861545;29;20517;-91
2021/03/06 05:19:57;;;;;;;12.07;6.47;;;1.00;99.90;;;;;;4862899;29;20033;-90
2021/03/06 05:22:22;;;;;;;13.15;5.70;;;1.00;99.90;;;;;;4881832;29;20037;-91
2021/03/06 05:24:48;;;;;;;14.23;6.18;;;0.90;99.90;;;;;;4865380;29;20053;-89
2021/03/06 05:27:15;;;;;;;12.98;6.15;;;0.90;99.90;;;;;;4865653;29;20033;-90
2021/03/06 05:29:41;;;;;;;17.25;6.65;;;1.00;99.90;;;;;;4865534;29;20048;-90
2021/03/06 05:32:07;;;;;;;10.82;6.20;;;1.00;99.90;;;;;;4881603;29;20049;-92
2021/03/06 05:34:33;;;;;;;13.40;6.50;;;1.00;99.90;;;;;;4865127;29;20044;-89
2021/03/06 05:36:59;;;;;;;11.23;6.35;;;1.00;99.90;;;;;;4865486;29;20029;-91
2021/03/06 05:39:25;;;;;;;11.73;6.95;;;0.90;99.90;;;;;;4865298;29;20029;-91
2021/03/06 05:41:51;;;;;;;9.38;6.07;;;1.00;99.90;;;;;;4865178;29;20088;-92
2021/03/06 05:44:17;;;;;;;10.40;5.95;;;1.00;99.90;;;;;;4865593;29;20491;-89
2021/03/06 05:46:44;;;;;;;16.25;6.32;;;1.00;99.90;;;;;;4866066;29;20029;-90
2021/03/06 05:49:10;;;;;;;16.05;5.75;;;1.00;99.90;;;;;;4865864;29;20119;-90
2021/03/06 05:51:37;;;;;;;13.30;6.53;;;1.00;99.90;;;;;;4865813;29;20037;-91
2021/03/06 05:54:08;;;;;;;11.90;6.82;;;1.00;99.90;;;;;;4866745;29;20375;-90
2021/03/06 05:56:36;;;;;;;12.18;5.20;;;1.00;99.90;;;;;;4884865;29;20172;-91
2021/03/06 05:59:03;;;;;;;12.43;5.68;;;1.00;99.90;;;;;;4868741;29;20037;-91
2021/03/06 06:01:31;;;;;;;13.20;5.97;;;1.00;99.90;;;;;;4869702;29;20025;-89
2021/03/06 06:04:02;;;;;;;11.50;6.07;;;1.00;99.90;;;;;;4869747;29;20093;-90
2021/03/06 06:06:31;;;;;;;16.35;7.30;;;1.00;99.90;;;;;;4867810;29;20029;-93
2021/03/06 06:09:02;;;;;;;12.88;7.07;;;1.10;99.90;;;;;;4883465;29;20041;-92
2021/03/06 06:11:28;;;;;;;11.48;5.93;;;1.10;99.90;;;;;;4866418;29;20077;-91
2021/03/06 06:13:56;;;;;;;9.35;5.70;;;1.10;99.90;;;;;;4865900;29;20054;-92
2021/03/06 06:16:22;;;;;;;9.93;5.82;;;1.10;99.90;;;;;;4880611;29;20041;-91
2021/03/06 06:18:49;;;;;;;11.80;5.53;;;1.10;99.90;;;;;;4865486;29;20040;-92
2021/03/06 06:21:54;;;;;;;7.85;5.20;;;1.10;99.90;;;;;;4866225;29;20029;-92
2021/03/06 06:24:22;;;;;;;9.75;5.10;;;1.20;99.90;;;;;;4810344;29;20066;-93
2021/03/06 06:27:05;;;;;;;9.13;5.30;;;1.20;99.90;;;;;;4825342;29;20122;-92
2021/03/06 06:29:42;;;;;;;14.20;5.57;;;1.10;99.90;;;;;;4825540;29;20034;-91
2021/03/06 06:32:10;;;;;;;10.88;5.43;;;1.10;99.90;;;;;;4825823;29;20413;-93
2021/03/06 06:34:36;;;;;;;11.32;5.30;;;1.10;99.90;;;;;;4820195;29;20494;-92
2021/03/06 06:37:13;;;;;;;9.68;4.80;;;1.10;99.90;;;;;;4815798;29;20125;-90
2021/03/06 06:39:40;;;;;;;12.18;5.30;;;1.10;99.90;;;;;;4812242;29;20046;-90
2021/03/06 06:42:06;;;;;;;9.00;5.38;;;1.10;99.90;;;;;;4813097;29;20511;-93
2021/03/06 06:44:33;;;;;;;10.40;5.93;;;1.10;99.90;;;;;;4810541;29;20027;-91
2021/03/06 06:47:12;;;;;;;11.68;5.90;;;1.10;99.90;;;;;;4822798;29;20079;-91
2021/03/06 06:49:48;;;;;;;9.77;4.75;;;1.20;99.90;;;;;;4816580;29;20484;-92
2021/03/06 06:52:19;;;;;;;10.48;6.03;;;1.20;99.90;;;;;;4820670;29;20439;-91
2021/03/06 06:54:56;;;;;;;12.25;6.28;;;1.20;99.90;;;;;;4834795;29;20037;-93
2021/03/06 06:57:23;;;;;;;9.90;5.32;;;1.20;99.90;;;;;;4864008;29;20036;-91
2021/03/06 06:59:52;;;;;;;9.27;5.22;;;1.20;99.90;;;;;;4880275;29;20054;-91
2021/03/06 07:02:18;;;;;;;7.90;5.22;;;1.20;99.90;;;;;;4864718;29;20035;-90
2021/03/06 07:04:51;;;;;;;6.80;4.80;;;1.20;99.90;;;;;;4865991;29;20093;-93
2021/03/06 07:07:19;;;;;;;10.23;5.25;;;1.20;99.90;;;;;;4866269;29;20037;-91
2021/03/06 07:10:03;;;;;;;12.57;5.28;;;1.20;99.90;;;;;;4882013;29;20037;-92
2021/03/06 07:12:31;;;;;;;8.10;5.05;;;1.20;99.90;;;;;;4862684;29;20172;-92
2021/03/06 07:14:57;;;;;;;9.13;6.05;;;1.30;99.90;;;;;;4864070;29;20041;-93
2021/03/06 07:17:23;;;;;;;10.50;5.32;;;1.30;99.90;;;;;;4864444;29;20085;-91
2021/03/06 07:19:49;;;;;;;8.48;4.10;;;1.30;99.90;;;;;;4864125;29;20029;-91
2021/03/06 07:22:15;;;;;;;9.52;5.10;;;1.30;99.90;;;;;;4863895;29;20085;-93
2021/03/06 07:24:41;;;;;;;12.65;5.80;;;1.30;99.90;;;;;;4863249;29;20077;-93
2021/03/06 07:27:07;;;;;;;11.70;6.28;;;1.30;99.90;;;;;;4863688;29;20037;-92
2021/03/06 07:29:33;;;;;;;12.30;5.68;;;1.30;99.90;;;;;;4863608;29;20021;-93
2021/03/06 07:32:00;;;;;;;16.75;5.65;;;1.30;99.90;;;;;;4863628;29;20058;-89
2021/03/06 07:34:29;;;;;;;11.18;5.45;;;1.30;99.90;;;;;;4863961;29;20033;-92
2021/03/06 07:37:03;;;;;;;12.77;5.97;;;1.30;99.90;;;;;;4862797;29;20064;-91
2021/03/06 07:39:36;;;;;;;14.00;5.95;;;1.40;99.90;;;;;;4861685;29;20040;-92
2021/03/06 07:42:03;;;;;;;10.20;6.13;;;1.40;99.90;;;;;;4879226;29;20072;-91
2021/03/06 07:44:30;;;;;;;10.80;5.90;;;1.40;99.90;;;;;;4863594;29;20029;-92
2021/03/06 07:46:58;;;;;;;13.02;6.32;;;1.40;99.90;;;;;;4864086;29;20033;-91
2021/03/06 07:49:31;;;;;;;13.50;5.78;;;1.50;99.90;;;;;;4864116;29;20072;-93
2021/03/06 07:51:59;;;;;;;17.15;5.63;;;1.50;99.90;;;;;;4864104;29;20047;-92
2021/03/06 07:54:25;;;;;;;9.10;5.55;;;1.50;99.90;;;;;;4864299;29;20033;-93
2021/03/06 07:56:52;;;;;;;10.18;5.43;;;1.50;99.90;;;;;;4864769;29;20032;-93
2021/03/06 07:59:38;;;;;;;9.15;4.53;;;1.50;99.90;;;;;;4864845;29;20414;-93
2021/03/06 08:02:37;;;;;;;9.65;5.00;;;1.60;99.90;;;;;;4865933;29;20029;-93
2021/03/06 08:05:12;;;;;;;9.70;5.03;;;1.70;99.90;;;;;;4879760;29;20021;-92
2021/03/06 08:07:44;;;;;;;14.52;7.45;;;1.70;99.90;;;;;;4865871;29;20461;-94
2021/03/06 08:10:11;;;;;;;11.25;5.72;;;1.80;99.90;;;;;;4862538;29;20124;-94
2021/03/06 08:12:38;;;;;;;7.78;5.78;;;1.80;99.90;;;;;;4869563;29;20037;-93
2021/03/06 08:15:27;;;;;;;16.73;7.25;;;1.80;99.90;;;;;;4868030;29;20040;-95
2021/03/06 08:17:53;;;;;;;17.50;7.88;;;1.90;99.90;;;;;;4879157;29;20063;-94
2021/03/06 08:20:28;;;;;;;14.95;7.13;;;1.90;99.90;;;;;;4868242;29;20033;-93
2021/03/06 08:23:30;;;;;;;12.75;6.68;;;1.90;99.90;;;;;;4865582;29;20036;-93
2021/03/06 08:26:17;;;;;;;8.73;5.55;;;1.90;99.90;;;;;;4808535;29;20038;-93
2021/03/06 08:28:43;;;;;;;10.85;6.30;;;2.00;99.90;;;;;;4826756;29;20099;-92
2021/03/06 08:31:39;;;;;;;13.30;5.43;;;2.00;99.90;;;;;;4815604;29;20389;-93
2021/03/06 08:34:35;;;;;;;12.80;5.90;;;2.10;99.90;;;;;;4825194;29;20533;-91
2021/03/06 08:37:31;;;;;;;8.07;4.88;;;2.10;99.90;;;;;;4804544;29;20044;-93
2021/03/06 08:40:13;;;;;;;13.80;5.40;;;2.10;99.90;;;;;;4836513;29;20062;-92
2021/03/06 08:42:46;;;;;;;7.40;4.57;;;2.20;99.90;;;;;;4836540;29;20039;-92
2021/03/06 08:45:24;;;;;;;12.13;5.72;;;2.30;99.90;;;;;;4815412;29;20109;-91
2021/03/06 08:47:54;;;;;;;9.80;4.95;;;2.30;99.90;;;;;;4817984;29;20049;-93
2021/03/06 08:50:22;;;;;;;9.50;4.85;;;2.50;99.90;;;;;;4833615;29;20062;-93
2021/03/06 08:53:00;;;;;;;12.80;5.00;;;2.50;99.90;;;;;;4824419;29;20504;-92
2021/03/06 08:55:31;;;;;;;9.82;4.68;;;2.60;99.90;;;;;;4814492;29;20102;-90
2021/03/06 08:58:06;;;;;;;;;;;2.60;99.90;;;;;;4837331;29;20069;-93
2021/03/06 09:00:33;;;;;;;13.68;5.53;;;2.70;99.90;;;;;;4879221;29;20377;-93
2021/03/06 09:03:28;;;;;;;9.07;6.07;;;2.70;99.90;;;;;;4876644;29;20047;-92
2021/03/06 09:05:56;;;;;;;7.72;4.65;;;2.80;99.90;;;;;;4876376;29;20041;-91
2021/03/06 09:08:23;;;;;;;7.22;4.78;;;2.80;99.90;;;;;;4876951;29;20371;-90
2021/03/06 09:10:51;;;;;;;10.88;5.38;;;2.90;99.90;;;;;;4877029;29;20025;-89
2021/03/06 09:13:28;;;;;;;13.13;5.85;;;3.00;99.90;;;;;;4875436;29;20052;-92
2021/03/06 09:16:00;;;;;;;8.35;5.03;;;3.00;99.90;;;;;;4890096;29;20089;-94
2021/03/06 09:18:30;;;;;;;8.10;4.53;;;3.10;99.90;;;;;;4877204;29;20033;-93
2021/03/06 09:21:04;;;;;;;;;;;3.20;99.90;;;;;;4878564;29;20401;-94
2021/03/06 09:23:35;;;;;;;8.85;4.63;;;3.20;99.90;;;;;;4893543;29;19939;-92
2021/03/06 09:26:03;;;;;;;;;;;3.30;99.90;;;;;;4879977;29;20025;-94
2021/03/06 09:28:30;;;;;;;7.95;4.72;;;3.40;99.90;;;;;;4894154;29;19938;-92
2021/03/06 09:30:59;;;;;;;8.07;4.03;;;3.40;99.90;;;;;;4878367;29;20040;-93
2021/03/06 09:33:37;;;;;;;9.10;4.97;;;3.50;99.90;;;;;;4877487;29;20055;-94
2021/03/06 09:36:09;;;;;;;9.63;4.60;;;3.50;99.90;;;;;;4894239;29;20044;-91
2021/03/06 09:38:48;;;;;;;8.70;4.72;;;3.60;99.90;;;;;;4876937;29;20037;-93
2021/03/06 09:41:15;;;;;;;7.88;3.80;;;3.70;99.90;;;;;;4862093;29;20037;-92
2021/03/06 09:43:43;;;;;;;8.18;3.80;;;3.80;99.90;;;;;;4871843;29;20035;-88
2021/03/06 09:46:22;;;;;;;7.78;3.90;;;3.90;99.30;;;;;;4874626;29;20101;-92
2021/03/06 09:49:11;;;;;;;9.52;3.47;;;3.90;98.50;;;;;;4893578;29;20612;-92
2021/03/06 09:51:50;;;;;;;7.65;4.07;;;4.00;97.80;;;;;;4865172;29;20101;-93
2021/03/06 09:54:17;;;;;;;6.22;3.53;;;4.10;97.40;;;;;;4875440;29;20033;-93
2021/03/06 09:56:58;;;;;;;7.03;3.53;;;4.10;96.80;;;;;;4875282;29;20025;-93
2021/03/06 09:59:26;;;;;;;6.18;3.70;;;4.20;96.20;;;;;;4887991;29;20036;-94
2021/03/06 10:01:52;;;;;;;6.18;3.67;;;4.20;95.80;;;;;;4871337;29;20017;-94
2021/03/06 10:04:23;;;;;;;7.93;3.30;;;4.30;95.30;;;;;;4893587;29;20033;-93
2021/03/06 10:06:49;;;;;;;;;;;4.40;95.00;;;;;;4877819;29;20013;-95
2021/03/06 10:09:17;;;;;;;6.50;3.83;;;4.40;94.00;;;;;;4877737;29;19908;-94
2021/03/06 10:11:55;;;;;;;10.23;3.38;;;4.50;93.80;;;;;;4898699;29;20058;-94
2021/03/06 10:14:24;;;;;;;6.88;3.60;;;4.50;93.30;;;;;;4880034;29;20029;-93
2021/03/06 10:16:52;;;;;;;7.32;3.95;;;4.60;92.90;;;;;;4874474;29;20029;-93
2021/03/06 10:19:20;;;;;;;5.85;3.78;;;4.70;92.60;;;;;;4882022;29;20057;-94
2021/03/06 10:22:07;;;;;;;6.75;3.40;;;4.70;92.20;;;;;;4883223;29;20033;-94
2021/03/06 10:24:56;;;;;;;7.63;3.45;;;4.80;91.70;;;;;;4861654;29;20587;-87
2021/03/06 10:27:46;;;;;;;9.95;3.78;;;4.80;91.40;;;;;;4864185;29;20045;-93
2021/03/06 10:30:21;;;;;;;6.10;3.13;;;4.90;91.10;;;;;;4883831;29;20115;-92
2021/03/06 10:32:49;;;;;;;6.30;3.15;;;5.00;91.00;;;;;;4894420;29;20051;-93
2021/03/06 10:35:46;;;;;;;8.68;3.83;;;5.00;90.90;;;;;;4901390;29;20032;-92
2021/03/06 10:38:21;;;;;;;11.75;3.53;;;5.10;90.90;;;;;;4897810;29;20041;-93
2021/03/06 10:40:52;;;;;;;5.88;3.03;;;5.20;90.30;;;;;;4880054;29;20052;-95
2021/03/06 10:43:26;;;;;;;;;;;5.30;90.00;;;;;;4897034;29;20041;-92
2021/03/06 10:45:52;;;;;;;6.75;3.97;;;5.40;90.20;;;;;;4872308;29;20350;-93
2021/03/06 10:48:28;;;;;;;5.00;2.90;;;5.50;89.60;;;;;;4872918;29;20057;-92
2021/03/06 10:50:55;;;;;;;5.95;3.47;;;5.60;88.10;;;;;;4890448;29;20115;-91
2021/03/06 10:53:23;;;;;;;4.25;2.10;;;5.60;87.40;;;;;;4885415;29;20037;-91
2021/03/06 10:55:50;;;;;;;9.25;2.85;;;5.70;87.40;;;;;;4870118;29;20025;-91
2021/03/06 10:58:16;;;;;;;6.57;2.60;;;5.80;87.50;;;;;;4875885;29;20043;-93
2021/03/06 11:00:45;;;;;;;5.18;2.45;;;5.80;86.70;;;;;;4871838;29;20025;-92
2021/03/06 11:03:12;;;;;;;4.15;2.25;;;5.90;85.80;;;;;;4873203;29;20031;-94
2021/03/06 11:05:39;;;;;;;3.13;2.50;;;5.90;85.00;;;;;;4877062;29;20029;-91
2021/03/06 11:08:18;;;;;;;8.05;3.15;;;6.00;85.20;;;;;;4871898;29;20052;-93
2021/03/06 11:10:51;;;;;;;6.57;3.38;;;6.10;84.80;;;;;;4884313;29;20059;-92
2021/03/06 11:13:20;;;;;;;6.05;2.80;;;6.10;83.90;;;;;;4879740;29;20037;-92
2021/03/06 11:15:56;;;;;;;4.22;2.92;;;6.10;84.50;;;;;;4868505;29;20037;-91
2021/03/06 11:18:22;;;;;;;4.63;2.67;;;6.20;84.30;;;;;;4868097;29;20024;-92
2021/03/06 11:20:49;;;;;;;6.57;3.15;;;6.20;83.90;;;;;;4866184;29;20377;-93
2021/03/06 11:23:15;;;;;;;8.15;2.60;;;6.20;83.00;;;;;;4865307;29;20021;-91
2021/03/06 11:25:41;;;;;;;4.15;2.60;;;6.20;82.30;;;;;;4860898;29;20088;-91
2021/03/06 11:28:08;;;;;;;4.35;2.60;;;6.20;81.70;;;;;;4883255;29;20076;-92
2021/03/06 11:30:39;;;;;;;9.68;2.72;;;6.10;81.20;;;;;;4883653;29;20058;-92
2021/03/06 11:33:12;;;;;;;;;;;6.10;80.40;;;;;;4865471;29;20044;-92
2021/03/06 11:35:38;;;;;;;3.83;2.47;;;6.00;80.70;;;;;;4866262;29;20370;-93
2021/03/06 11:38:10;;;;;;;7.60;2.95;;;6.00;80.40;;;;;;4865762;29;20505;-91
2021/03/06 11:40:38;;;;;;;6.60;2.85;;;6.00;80.40;;;;;;4864983;29;20057;-90
2021/03/06 11:43:04;;;;;;;8.05;3.72;;;6.00;80.30;;;;;;4866434;29;20502;-94
2021/03/06 11:45:30;;;;;;;7.25;3.08;;;6.00;80.30;;;;;;4866585;29;20112;-91
2021/03/06 11:47:56;;;;;;;5.25;2.97;;;6.00;80.30;;;;;;4866865;29;20032;-92
2021/03/06 11:50:24;;;;;;;6.55;2.92;;;6.00;80.50;;;;;;4867092;29;20040;-93
2021/03/06 11:52:50;;;;;;;7.32;3.08;;;6.20;80.20;;;;;;4866036;29;20101;-92
2021/03/06 11:55:16;;;;;;;6.63;3.00;;;6.10;79.40;;;;;;4866158;29;20033;-95
2021/03/06 11:57:42;;;;;;;7.15;3.13;;;6.10;79.20;;;;;;4865798;29;20025;-93
2021/03/06 12:00:23;;;;;;;6.68;3.47;;;6.20;79.10;;;;;;4865791;29;20025;-92
2021/03/06 12:02:50;;;;;;;8.68;3.42;;;6.20;78.80;;;;;;4885619;29;20048;-93
2021/03/06 12:05:16;;;;;;;5.35;4.00;;;6.10;78.50;;;;;;4872376;29;20036;-91
2021/03/06 12:07:43;;;;;;;8.40;4.60;;;6.20;78.20;;;;;;4872735;29;20096;-92
2021/03/06 12:10:12;;;;;;;12.73;4.35;;;6.10;77.40;;;;;;4886888;29;20112;-90
2021/03/06 12:12:39;;;;;;;10.80;4.63;;;6.00;77.10;;;;;;4869384;29;20049;-92
2021/03/06 12:15:06;;;;;;;7.32;4.85;;;6.00;77.10;;;;;;4869776;29;20060;-91
2021/03/06 12:17:33;;;;;;;8.07;4.47;;;6.10;77.30;;;;;;4864908;29;20057;-92
2021/03/06 12:19:59;;;;;;;11.40;4.38;;;6.10;77.00;;;;;;4871875;29;20029;-93
2021/03/06 12:22:25;;;;;;;6.53;4.25;;;6.10;76.80;;;;;;4874963;29;20211;-92
2021/03/06 12:24:51;;;;;;;5.90;4.10;;;6.10;76.50;;;;;;4887040;29;20084;-91
2021/03/06 12:27:17;;;;;;;15.13;4.25;;;6.10;76.30;;;;;;4887254;29;20029;-91
2021/03/06 12:29:42;;;;;;;6.63;4.40;;;6.20;76.60;;;;;;4862395;29;20113;-93
2021/03/06 12:32:09;;;;;;;6.22;4.65;;;6.20;76.30;;;;;;4866409;29;20033;-95
2021/03/06 12:34:35;;;;;;;12.05;5.47;;;6.30;76.80;;;;;;4884311;29;20056;-93
2021/03/06 12:37:02;;;;;;;6.63;4.50;;;6.40;76.30;;;;;;4866791;29;20025;-93
2021/03/06 12:39:28;;;;;;;12.77;5.82;;;6.40;76.10;;;;;;4867640;29;20037;-92
2021/03/06 12:42:18;;;;;;;7.25;5.15;;;6.50;75.70;;;;;;4866079;29;20172;-92
2021/03/06 12:44:44;;;;;;;8.40;5.65;;;6.50;75.50;;;;;;4866563;29;20025;-94
2021/03/06 12:47:10;;;;;;;12.30;5.43;;;6.60;75.80;;;;;;4871806;29;20512;-92
2021/03/06 12:49:38;;;;;;;8.23;5.03;;;6.70;75.80;;;;;;4878126;29;20049;-92
2021/03/06 12:52:13;;;;;;;9.18;5.63;;;6.70;75.40;;;;;;4863185;29;20033;-94
2021/03/06 12:54:39;;;;;;;9.55;4.85;;;6.70;75.20;;;;;;4870778;29;20033;-91
2021/03/06 12:57:05;;;;;;;9.43;5.35;;;6.70;75.10;;;;;;4864271;29;20088;-92
2021/03/06 12:59:33;;;;;;;8.82;4.88;;;6.70;74.70;;;;;;4881219;29;20045;-93
2021/03/06 13:01:58;;;;;;;7.45;4.90;;;6.70;74.70;;;;;;4864489;29;20036;-91
2021/03/06 13:04:24;;;;;;;6.90;4.63;;;6.70;74.60;;;;;;4864715;29;20029;-91
2021/03/06 13:06:53;;;;;;;7.70;5.05;;;6.70;74.50;;;;;;4864465;29;20471;-92